Time;durP1;ratioP1;P1;durP2;ratioP2;P2;SDS_P1;SDS_P2;PMS_P1;PMS_P2;Temp;Humidity;BMP_temperature;BMP_pressure;BME280_temperature;BME280_humidity;BME280_pressure;Samples;Min_cycle;Max_cycle;Signal;HPM_P1;HPM_P2
2024/01/13 00:01:03;;;;;;;3.35;1.55;;;;;;;;;;5131186;27;20039;-63
2024/01/13 00:03:29;;;;;;;3.05;1.48;;;;;;;;;;5129396;27;20031;-63
2024/01/13 00:05:55;;;;;;;3.58;1.48;;;;;;;;;;5121919;27;20519;-63
2024/01/13 00:08:21;;;;;;;2.40;1.60;;;;;;;;;;5122242;27;20039;-63
2024/01/13 00:10:47;;;;;;;5.88;1.77;;;;;;;;;;5121844;27;20035;-63
2024/01/13 00:13:13;;;;;;;4.05;1.60;;;;;;;;;;5125660;27;20189;-63
2024/01/13 00:15:40;;;;;;;4.68;1.80;;;;;;;;;;5129581;27;20051;-63
2024/01/13 00:18:06;;;;;;;5.53;2.15;;;;;;;;;;5129586;27;20050;-63
2024/01/13 00:20:32;;;;;;;3.83;2.65;;;;;;;;;;5126589;27;20256;-63
2024/01/13 00:22:58;;;;;;;5.38;2.22;;;;;;;;;;5126948;27;20043;-63
2024/01/13 00:25:24;;;;;;;5.97;1.85;;;;;;;;;;5129452;27;20031;-63
2024/01/13 00:27:50;;;;;;;4.90;1.45;;;;;;;;;;5128286;27;20164;-65
2024/01/13 00:30:17;;;;;;;5.05;2.20;;;;;;;;;;5127117;27;20034;-63
2024/01/13 00:32:43;;;;;;;4.05;1.55;;;;;;;;;;5129225;27;20046;-63
2024/01/13 00:35:09;;;;;;;4.10;1.70;;;;;;;;;;5124639;27;20043;-63
2024/01/13 00:37:35;;;;;;;4.78;2.00;;;;;;;;;;5129555;27;20070;-64
2024/01/13 00:40:01;;;;;;;5.43;2.10;;;;;;;;;;5110699;27;20065;-63
2024/01/13 00:42:27;;;;;;;4.47;1.70;;;;;;;;;;5124530;27;20116;-63
2024/01/13 00:44:53;;;;;;;4.53;2.10;;;;;;;;;;5119215;27;20036;-63
2024/01/13 00:47:19;;;;;;;5.57;1.90;;;;;;;;;;5124018;27;20514;-63
2024/01/13 00:49:45;;;;;;;5.00;1.98;;;;;;;;;;5127206;27;20103;-63
2024/01/13 00:52:11;;;;;;;6.80;1.83;;;;;;;;;;5127792;27;20110;-63
2024/01/13 00:54:40;;;;;;;3.95;1.50;;;;;;;;;;5129610;27;20065;-63
2024/01/13 00:57:06;;;;;;;3.42;2.00;;;;;;;;;;5107945;27;20141;-63
2024/01/13 00:59:32;;;;;;;2.72;1.70;;;;;;;;;;5111431;27;20043;-65
2024/01/13 01:01:58;;;;;;;4.90;2.17;;;;;;;;;;5130808;27;20404;-64
2024/01/13 01:04:24;;;;;;;3.45;2.20;;;;;;;;;;5128819;27;20054;-63
2024/01/13 01:06:50;;;;;;;2.83;1.77;;;;;;;;;;5125673;27;20517;-63
2024/01/13 01:09:16;;;;;;;6.63;1.60;;;;;;;;;;5117632;27;20043;-63
2024/01/13 01:11:43;;;;;;;3.85;1.42;;;;;;;;;;5118126;27;20039;-63
2024/01/13 01:14:09;;;;;;;5.00;1.30;;;;;;;;;;5122160;27;20051;-63
2024/01/13 01:16:35;;;;;;;2.75;1.40;;;;;;;;;;5129391;27;20039;-63
2024/01/13 01:19:01;;;;;;;4.68;1.65;;;;;;;;;;5129396;27;20058;-63
2024/01/13 01:21:27;;;;;;;4.57;1.35;;;;;;;;;;5130486;27;20528;-63
2024/01/13 01:23:53;;;;;;;3.30;2.15;;;;;;;;;;5128339;27;20050;-63
2024/01/13 01:26:19;;;;;;;4.22;1.95;;;;;;;;;;5130293;27;20046;-63
2024/01/13 01:28:46;;;;;;;4.07;1.55;;;;;;;;;;5129186;27;20444;-63
2024/01/13 01:31:12;;;;;;;2.35;1.13;;;;;;;;;;5128681;27;20043;-63
2024/01/13 01:33:38;;;;;;;3.88;1.40;;;;;;;;;;5129314;27;20065;-63
2024/01/13 01:36:04;;;;;;;3.90;1.58;;;;;;;;;;5128964;27;20466;-64
2024/01/13 01:38:31;;;;;;;3.63;1.70;;;;;;;;;;5128537;27;20043;-64
2024/01/13 01:40:57;;;;;;;8.93;1.92;;;;;;;;;;5129359;27;20080;-63
2024/01/13 01:43:23;;;;;;;2.88;1.50;;;;;;;;;;5111630;27;20130;-62
2024/01/13 01:45:51;;;;;;;1.75;1.20;;;;;;;;;;5129771;27;20558;-63
2024/01/13 01:48:17;;;;;;;2.85;1.33;;;;;;;;;;5129152;27;20126;-63
2024/01/13 01:50:43;;;;;;;2.25;1.52;;;;;;;;;;5128085;27;20041;-64
2024/01/13 01:53:11;;;;;;;3.47;1.58;;;;;;;;;;5127193;27;20125;-64
2024/01/13 01:55:37;;;;;;;3.65;1.30;;;;;;;;;;5127821;27;20046;-64
2024/01/13 01:58:04;;;;;;;4.30;1.67;;;;;;;;;;5127797;27;20455;-64
2024/01/13 02:00:32;;;;;;;5.65;2.55;;;;;;;;;;5128894;28;20119;-64
2024/01/13 02:02:58;;;;;;;4.35;2.40;;;;;;;;;;5127667;27;20046;-64
2024/01/13 02:05:24;;;;;;;3.58;1.38;;;;;;;;;;5127898;28;20039;-64
2024/01/13 02:07:50;;;;;;;3.28;1.10;;;;;;;;;;5127663;28;20046;-64
2024/01/13 02:10:18;;;;;;;3.08;1.23;;;;;;;;;;5119486;28;20130;-64
2024/01/13 02:12:44;;;;;;;6.88;1.88;;;;;;;;;;5129056;28;20039;-64
2024/01/13 02:15:10;;;;;;;2.65;1.20;;;;;;;;;;5128315;28;20124;-64
2024/01/13 02:17:37;;;;;;;2.53;1.20;;;;;;;;;;5128871;27;20047;-64
2024/01/13 02:20:06;;;;;;;2.83;1.13;;;;;;;;;;5120387;28;20414;-63
2024/01/13 02:22:33;;;;;;;1.42;1.10;;;;;;;;;;5110731;28;20103;-63
2024/01/13 02:25:01;;;;;;;3.80;1.33;;;;;;;;;;5127720;28;20091;-64
2024/01/13 02:27:28;;;;;;;2.92;1.25;;;;;;;;;;5127917;28;20487;-64
2024/01/13 02:29:55;;;;;;;3.28;1.33;;;;;;;;;;5116063;28;20046;-63
2024/01/13 02:32:21;;;;;;;1.70;1.15;;;;;;;;;;5116409;28;20496;-64
2024/01/13 02:34:47;;;;;;;2.28;1.30;;;;;;;;;;5126291;28;20051;-64
2024/01/13 02:37:13;;;;;;;2.72;1.10;;;;;;;;;;5127083;28;20034;-64
2024/01/13 02:39:39;;;;;;;2.80;1.77;;;;;;;;;;5126008;28;20035;-64
2024/01/13 02:42:06;;;;;;;1.95;1.17;;;;;;;;;;5128198;28;20114;-64
2024/01/13 02:44:32;;;;;;;1.55;1.10;;;;;;;;;;5126315;28;20035;-64
2024/01/13 02:46:58;;;;;;;2.45;1.35;;;;;;;;;;5110547;28;20049;-64
2024/01/13 02:49:27;;;;;;;1.75;1.40;;;;;;;;;;5128209;28;20491;-64
2024/01/13 02:51:53;;;;;;;5.75;1.70;;;;;;;;;;5129041;28;20035;-64
2024/01/13 02:54:19;;;;;;;4.20;1.40;;;;;;;;;;5128029;28;20051;-64
2024/01/13 02:56:45;;;;;;;1.65;1.05;;;;;;;;;;5110543;28;20515;-63
2024/01/13 02:59:11;;;;;;;1.55;0.77;;;;;;;;;;5128707;28;20122;-63
2024/01/13 03:01:38;;;;;;;1.98;0.95;;;;;;;;;;5107505;28;20073;-64
2024/01/13 03:04:06;;;;;;;3.65;1.10;;;;;;;;;;5127503;28;20519;-64
2024/01/13 03:06:32;;;;;;;4.00;1.02;;;;;;;;;;5117374;28;20399;-64
2024/01/13 03:08:58;;;;;;;2.85;1.30;;;;;;;;;;5125188;28;20043;-63
2024/01/13 03:11:25;;;;;;;3.58;1.73;;;;;;;;;;5128754;27;20471;-64
2024/01/13 03:13:51;;;;;;;2.67;1.40;;;;;;;;;;5131816;27;20503;-64
2024/01/13 03:16:17;;;;;;;2.25;1.10;;;;;;;;;;5130271;27;20042;-64
2024/01/13 03:18:43;;;;;;;4.13;1.27;;;;;;;;;;5132051;27;20130;-64
2024/01/13 03:21:10;;;;;;;3.15;1.50;;;;;;;;;;5113856;27;20383;-64
2024/01/13 03:23:36;;;;;;;3.80;1.30;;;;;;;;;;5130198;27;20356;-64
2024/01/13 03:26:02;;;;;;;3.78;1.58;;;;;;;;;;5129716;27;20046;-62
2024/01/13 03:28:28;;;;;;;4.20;1.73;;;;;;;;;;5132048;27;20092;-64
2024/01/13 03:30:55;;;;;;;5.85;1.52;;;;;;;;;;5131252;27;20090;-63
2024/01/13 03:33:21;;;;;;;7.72;2.15;;;;;;;;;;5130140;27;20464;-63
2024/01/13 03:35:47;;;;;;;1.98;1.05;;;;;;;;;;5132125;27;20035;-64
2024/01/13 03:38:13;;;;;;;2.10;1.27;;;;;;;;;;5125812;27;20503;-64
2024/01/13 03:40:39;;;;;;;3.75;1.20;;;;;;;;;;5129491;27;20492;-64
2024/01/13 03:43:05;;;;;;;5.05;1.30;;;;;;;;;;5106226;27;20043;-64
2024/01/13 03:45:32;;;;;;;3.22;1.10;;;;;;;;;;5130644;27;20043;-64
2024/01/13 03:47:58;;;;;;;2.67;1.42;;;;;;;;;;5131578;27;20039;-65
2024/01/13 03:50:24;;;;;;;2.80;1.27;;;;;;;;;;5132158;27;20047;-63
2024/01/13 03:52:50;;;;;;;2.33;1.23;;;;;;;;;;5130603;27;20042;-64
2024/01/13 03:55:16;;;;;;;3.67;1.10;;;;;;;;;;5130430;27;20031;-63
2024/01/13 03:57:42;;;;;;;4.13;1.65;;;;;;;;;;5132496;27;20420;-64
2024/01/13 04:00:08;;;;;;;3.50;1.23;;;;;;;;;;5130136;27;20126;-64
2024/01/13 04:02:35;;;;;;;2.83;1.10;;;;;;;;;;5130141;27;20126;-64
2024/01/13 04:05:01;;;;;;;1.88;1.38;;;;;;;;;;5130457;27;20126;-63
2024/01/13 04:07:27;;;;;;;2.17;1.02;;;;;;;;;;5129549;27;20050;-64
2024/01/13 04:09:53;;;;;;;2.47;1.38;;;;;;;;;;5112232;27;20377;-64
2024/01/13 04:12:21;;;;;;;2.10;0.95;;;;;;;;;;5131233;27;20038;-64
2024/01/13 04:14:47;;;;;;;2.63;0.95;;;;;;;;;;5128685;27;20059;-64
2024/01/13 04:17:13;;;;;;;4.45;1.70;;;;;;;;;;5107352;28;20090;-64
2024/01/13 04:19:39;;;;;;;1.48;0.95;;;;;;;;;;5128290;27;20058;-64
2024/01/13 04:22:05;;;;;;;3.92;1.42;;;;;;;;;;5130233;27;20058;-63
2024/01/13 04:24:31;;;;;;;1.65;1.00;;;;;;;;;;5130639;27;20043;-64
2024/01/13 04:26:57;;;;;;;2.95;1.17;;;;;;;;;;5130399;27;20084;-64
2024/01/13 04:29:23;;;;;;;3.88;1.30;;;;;;;;;;5129664;27;20095;-63
2024/01/13 04:31:49;;;;;;;2.05;1.00;;;;;;;;;;5112997;27;20073;-64
2024/01/13 04:34:15;;;;;;;2.38;1.08;;;;;;;;;;5127253;27;20039;-63
2024/01/13 04:36:42;;;;;;;1.58;1.00;;;;;;;;;;5130292;27;20080;-63
2024/01/13 04:39:08;;;;;;;2.00;1.02;;;;;;;;;;5111869;27;20124;-64
2024/01/13 04:41:34;;;;;;;2.78;1.38;;;;;;;;;;5129275;27;20043;-64
2024/01/13 04:44:01;;;;;;;2.22;0.95;;;;;;;;;;5131117;27;20050;-64
2024/01/13 04:46:27;;;;;;;1.10;0.95;;;;;;;;;;5131099;27;20043;-64
2024/01/13 04:48:53;;;;;;;1.70;1.13;;;;;;;;;;5130691;27;20134;-64
2024/01/13 04:51:19;;;;;;;1.85;1.00;;;;;;;;;;5131391;27;20031;-64
2024/01/13 04:53:45;;;;;;;4.35;1.20;;;;;;;;;;5125727;27;20568;-64
2024/01/13 04:56:11;;;;;;;5.20;1.00;;;;;;;;;;5129079;27;20039;-64
2024/01/13 04:58:37;;;;;;;1.48;0.90;;;;;;;;;;5128536;27;20062;-65
2024/01/13 05:01:04;;;;;;;5.43;1.00;;;;;;;;;;5128605;27;20051;-65
2024/01/13 05:03:30;;;;;;;2.92;1.35;;;;;;;;;;5128293;27;20039;-64
2024/01/13 05:05:56;;;;;;;3.65;1.20;;;;;;;;;;5130663;27;20031;-64
2024/01/13 05:08:22;;;;;;;3.13;0.95;;;;;;;;;;5129439;27;20423;-64
2024/01/13 05:10:48;;;;;;;2.92;1.13;;;;;;;;;;5125034;27;20108;-64
2024/01/13 05:13:14;;;;;;;4.72;1.10;;;;;;;;;;5112159;27;20078;-65
2024/01/13 05:15:40;;;;;;;1.73;0.82;;;;;;;;;;5129938;27;20456;-64
2024/01/13 05:18:06;;;;;;;4.10;1.10;;;;;;;;;;5111412;27;20047;-64
2024/01/13 05:20:32;;;;;;;3.70;1.15;;;;;;;;;;5130161;27;20114;-65
2024/01/13 05:22:58;;;;;;;4.07;1.10;;;;;;;;;;5111920;27;20047;-64
2024/01/13 05:25:25;;;;;;;1.25;0.80;;;;;;;;;;5130373;27;20058;-64
2024/01/13 05:27:51;;;;;;;2.58;0.95;;;;;;;;;;5106394;27;20123;-64
2024/01/13 05:30:17;;;;;;;1.13;0.80;;;;;;;;;;5130713;27;20267;-63
2024/01/13 05:32:43;;;;;;;1.77;1.00;;;;;;;;;;5124264;27;20035;-64
2024/01/13 05:35:09;;;;;;;8.88;2.20;;;;;;;;;;5112348;27;20202;-64
2024/01/13 05:37:35;;;;;;;3.38;0.98;;;;;;;;;;5127580;27;20633;-64
2024/01/13 05:40:04;;;;;;;2.28;0.90;;;;;;;;;;5125114;27;20095;-63
2024/01/13 05:42:30;;;;;;;2.08;0.75;;;;;;;;;;5116295;27;20043;-64
2024/01/13 05:44:56;;;;;;;1.38;0.85;;;;;;;;;;5127555;27;20034;-63
2024/01/13 05:47:22;;;;;;;1.35;0.85;;;;;;;;;;5119051;27;20081;-63
2024/01/13 05:49:49;;;;;;;0.93;0.68;;;;;;;;;;5120896;27;20043;-63
2024/01/13 05:52:15;;;;;;;1.65;0.80;;;;;;;;;;5126376;27;20054;-64
2024/01/13 05:54:41;;;;;;;1.60;0.65;;;;;;;;;;5123864;27;20064;-65
2024/01/13 05:57:07;;;;;;;0.90;0.70;;;;;;;;;;5122345;27;20135;-64
2024/01/13 05:59:33;;;;;;;1.55;1.00;;;;;;;;;;5125964;27;20126;-65
2024/01/13 06:01:59;;;;;;;1.52;0.60;;;;;;;;;;5122343;27;20087;-63
2024/01/13 06:04:25;;;;;;;4.32;1.02;;;;;;;;;;5119972;27;20100;-64
2024/01/13 06:06:51;;;;;;;0.77;0.50;;;;;;;;;;5123709;28;20070;-63
2024/01/13 06:09:18;;;;;;;1.27;0.68;;;;;;;;;;5119944;28;20502;-63
2024/01/13 06:11:44;;;;;;;1.10;0.77;;;;;;;;;;5126112;28;20347;-65
2024/01/13 06:14:10;;;;;;;1.17;0.60;;;;;;;;;;5124744;28;20150;-63
2024/01/13 06:16:36;;;;;;;0.98;0.50;;;;;;;;;;5125292;28;20039;-65
2024/01/13 06:19:03;;;;;;;1.77;0.75;;;;;;;;;;5124907;28;20126;-64
2024/01/13 06:21:30;;;;;;;1.48;0.77;;;;;;;;;;5127290;28;20137;-63
2024/01/13 06:23:58;;;;;;;2.05;0.90;;;;;;;;;;5120404;28;20566;-63
2024/01/13 06:26:25;;;;;;;1.25;0.75;;;;;;;;;;5117485;28;20031;-63
2024/01/13 06:28:51;;;;;;;0.82;0.43;;;;;;;;;;5117920;28;20070;-63
2024/01/13 06:31:18;;;;;;;2.67;0.80;;;;;;;;;;5125244;28;20119;-63
2024/01/13 06:33:44;;;;;;;0.82;0.70;;;;;;;;;;5126793;28;20047;-63
2024/01/13 06:36:10;;;;;;;3.55;0.95;;;;;;;;;;5124912;28;20081;-63
2024/01/13 06:38:36;;;;;;;1.20;0.70;;;;;;;;;;5111505;28;20078;-64
2024/01/13 06:41:03;;;;;;;0.50;0.50;;;;;;;;;;5120488;28;20047;-63
2024/01/13 06:43:29;;;;;;;1.27;0.80;;;;;;;;;;5106756;28;20499;-63
2024/01/13 06:45:55;;;;;;;1.52;0.82;;;;;;;;;;5110057;27;20071;-64
2024/01/13 06:48:22;;;;;;;3.63;0.70;;;;;;;;;;5126552;27;21361;-63
2024/01/13 06:50:48;;;;;;;2.10;1.15;;;;;;;;;;5125479;27;20039;-64
2024/01/13 06:53:14;;;;;;;1.60;0.90;;;;;;;;;;5128796;27;20043;-64
2024/01/13 06:55:40;;;;;;;3.53;1.10;;;;;;;;;;5124913;27;20032;-64
2024/01/13 06:58:07;;;;;;;2.53;0.75;;;;;;;;;;5090474;28;20096;-64
2024/01/13 07:00:34;;;;;;;1.50;1.15;;;;;;;;;;5124237;27;20066;-64
2024/01/13 07:03:00;;;;;;;3.33;1.67;;;;;;;;;;5123234;27;20073;-63
2024/01/13 07:05:26;;;;;;;3.38;2.17;;;;;;;;;;5127503;27;20039;-64
2024/01/13 07:07:52;;;;;;;2.85;1.50;;;;;;;;;;5109399;27;20072;-64
2024/01/13 07:10:18;;;;;;;2.80;1.67;;;;;;;;;;5112210;27;20106;-63
2024/01/13 07:12:47;;;;;;;2.78;1.40;;;;;;;;;;5126666;27;20399;-64
2024/01/13 07:15:13;;;;;;;6.60;1.85;;;;;;;;;;5123400;27;20054;-64
2024/01/13 07:17:39;;;;;;;2.25;1.05;;;;;;;;;;5127412;27;20065;-63
2024/01/13 07:20:06;;;;;;;2.80;1.25;;;;;;;;;;5127648;27;20407;-64
2024/01/13 07:22:33;;;;;;;2.92;1.63;;;;;;;;;;5125912;27;20046;-64
2024/01/13 07:24:59;;;;;;;6.57;2.90;;;;;;;;;;5127214;27;20035;-64
2024/01/13 07:27:25;;;;;;;6.07;2.58;;;;;;;;;;5130012;27;20031;-64
2024/01/13 07:29:51;;;;;;;3.35;1.98;;;;;;;;;;5125611;27;20067;-64
2024/01/13 07:32:18;;;;;;;5.75;2.40;;;;;;;;;;5129085;27;20047;-63
2024/01/13 07:34:44;;;;;;;7.50;3.30;;;;;;;;;;5109771;27;20527;-64
2024/01/13 07:37:10;;;;;;;7.57;3.97;;;;;;;;;;5127818;27;20043;-63
2024/01/13 07:39:37;;;;;;;7.70;4.90;;;;;;;;;;5119565;27;20047;-64
2024/01/13 07:42:03;;;;;;;7.80;4.13;;;;;;;;;;5127750;27;20080;-64
2024/01/13 07:44:29;;;;;;;7.70;4.32;;;;;;;;;;5126818;27;20051;-64
2024/01/13 07:47:00;;;;;;;10.38;5.70;;;;;;;;;;5127619;27;20123;-64
2024/01/13 07:49:27;;;;;;;10.80;6.30;;;;;;;;;;5123437;27;20070;-64
2024/01/13 07:51:54;;;;;;;11.10;5.30;;;;;;;;;;5120774;27;20054;-64
2024/01/13 07:54:20;;;;;;;15.63;6.18;;;;;;;;;;5122350;27;20126;-64
2024/01/13 07:56:47;;;;;;;11.27;7.28;;;;;;;;;;5124403;27;20047;-63
2024/01/13 07:59:13;;;;;;;10.18;6.43;;;;;;;;;;5107149;27;20126;-64
2024/01/13 08:01:40;;;;;;;11.85;6.93;;;;;;;;;;5120112;27;20039;-64
2024/01/13 08:04:06;;;;;;;12.52;6.50;;;;;;;;;;5107453;27;20055;-63
2024/01/13 08:06:32;;;;;;;14.32;8.70;;;;;;;;;;5125071;27;20126;-64
2024/01/13 08:08:59;;;;;;;13.15;8.80;;;;;;;;;;5122675;27;20036;-64
2024/01/13 08:11:25;;;;;;;16.02;9.15;;;;;;;;;;5123483;27;20081;-63
2024/01/13 08:13:51;;;;;;;14.07;8.45;;;;;;;;;;5121837;27;20059;-64
2024/01/13 08:16:17;;;;;;;15.80;8.80;;;;;;;;;;5095243;27;20043;-65
2024/01/13 08:18:43;;;;;;;19.35;11.25;;;;;;;;;;5125559;27;20158;-64
2024/01/13 08:21:09;;;;;;;19.63;11.52;;;;;;;;;;5121100;27;21793;-64
2024/01/13 08:23:36;;;;;;;17.30;11.30;;;;;;;;;;5118885;27;20097;-64
2024/01/13 08:26:02;;;;;;;17.95;11.10;;;;;;;;;;5126762;27;20132;-64
2024/01/13 08:28:28;;;;;;;18.55;10.40;;;;;;;;;;5127055;27;20148;-64
2024/01/13 08:30:58;;;;;;;21.80;11.98;;;;;;;;;;5121913;27;20043;-64
2024/01/13 08:33:24;;;;;;;21.88;12.40;;;;;;;;;;5126226;27;20039;-64
2024/01/13 08:35:50;;;;;;;25.30;13.90;;;;;;;;;;5124591;27;20054;-64
2024/01/13 08:38:16;;;;;;;17.85;11.88;;;;;;;;;;5103886;27;20655;-63
2024/01/13 08:40:44;;;;;;;22.60;13.32;;;;;;;;;;5124128;27;20043;-63
2024/01/13 08:43:10;;;;;;;23.45;14.02;;;;;;;;;;5103320;27;20139;-64
2024/01/13 08:45:36;;;;;;;24.77;16.02;;;;;;;;;;5128349;27;20042;-64
2024/01/13 08:48:02;;;;;;;24.42;15.05;;;;;;;;;;5124150;27;20046;-64
2024/01/13 08:50:28;;;;;;;24.75;14.23;;;;;;;;;;5124150;27;20035;-64
2024/01/13 08:52:55;;;;;;;21.75;14.45;;;;;;;;;;5122173;27;20035;-63
2024/01/13 08:55:21;;;;;;;21.90;14.75;;;;;;;;;;5126051;27;20035;-64
2024/01/13 08:57:48;;;;;;;23.17;15.38;;;;;;;;;;5120771;27;20058;-64
2024/01/13 09:00:14;;;;;;;31.38;15.88;;;;;;;;;;5121503;27;20122;-64
2024/01/13 09:02:41;;;;;;;22.25;14.70;;;;;;;;;;5117687;27;20281;-65
2024/01/13 09:05:08;;;;;;;21.95;15.48;;;;;;;;;;5122709;27;20035;-63
2024/01/13 09:07:35;;;;;;;27.55;15.63;;;;;;;;;;5117478;27;20160;-63
2024/01/13 09:10:01;;;;;;;31.15;18.90;;;;;;;;;;5127075;27;20066;-63
2024/01/13 09:12:27;;;;;;;25.45;17.85;;;;;;;;;;5100952;27;20459;-63
2024/01/13 09:14:53;;;;;;;25.35;15.70;;;;;;;;;;5124038;27;20054;-63
2024/01/13 09:17:19;;;;;;;30.00;17.25;;;;;;;;;;5094194;27;20129;-63
2024/01/13 09:19:46;;;;;;;29.08;17.50;;;;;;;;;;5125887;27;20651;-63
2024/01/13 09:22:12;;;;;;;27.52;17.42;;;;;;;;;;5087954;27;20418;-63
2024/01/13 09:24:38;;;;;;;28.17;18.60;;;;;;;;;;5120392;27;20118;-63
2024/01/13 09:27:04;;;;;;;34.45;19.83;;;;;;;;;;5105904;27;20430;-62
2024/01/13 09:29:31;;;;;;;28.85;18.52;;;;;;;;;;5120819;27;20031;-63
2024/01/13 09:31:57;;;;;;;32.85;19.33;;;;;;;;;;5126162;27;20035;-63
2024/01/13 09:34:24;;;;;;;38.80;19.50;;;;;;;;;;5126188;27;20571;-63
2024/01/13 09:36:51;;;;;;;28.25;16.77;;;;;;;;;;5119026;27;20368;-64
2024/01/13 09:39:17;;;;;;;30.35;19.55;;;;;;;;;;5126554;27;20471;-64
2024/01/13 09:41:47;;;;;;;33.45;19.40;;;;;;;;;;5123816;27;20054;-63
2024/01/13 09:44:13;;;;;;;24.27;17.10;;;;;;;;;;5117989;27;20407;-63
2024/01/13 09:46:40;;;;;;;28.88;19.58;;;;;;;;;;5126211;27;20042;-63
2024/01/13 09:49:09;;;;;;;28.30;17.83;;;;;;;;;;5117646;27;20547;-63
2024/01/13 09:51:37;;;;;;;27.63;17.08;;;;;;;;;;5126287;27;20439;-63
2024/01/13 09:54:06;;;;;;;28.77;18.25;;;;;;;;;;5125373;27;20340;-63
2024/01/13 09:56:34;;;;;;;26.63;17.45;;;;;;;;;;5125496;27;20066;-63
2024/01/13 09:59:00;;;;;;;21.65;15.10;;;;;;;;;;5121054;27;20055;-63
2024/01/13 10:01:27;;;;;;;22.35;16.13;;;;;;;;;;5110357;27;20073;-63
2024/01/13 10:03:53;;;;;;;29.50;16.77;;;;;;;;;;5120656;27;20050;-63
2024/01/13 10:06:20;;;;;;;21.02;13.93;;;;;;;;;;5126125;27;20381;-63
2024/01/13 10:08:46;;;;;;;24.42;14.13;;;;;;;;;;5123856;28;20658;-62
2024/01/13 10:11:13;;;;;;;20.98;13.48;;;;;;;;;;5106887;28;20502;-63
2024/01/13 10:13:39;;;;;;;17.98;11.98;;;;;;;;;;5106312;28;20155;-63
2024/01/13 10:16:05;;;;;;;18.95;11.90;;;;;;;;;;5124612;28;20095;-63
2024/01/13 10:18:32;;;;;;;19.33;12.10;;;;;;;;;;5123865;28;20114;-63
2024/01/13 10:20:58;;;;;;;17.58;11.30;;;;;;;;;;5126200;27;20591;-63
2024/01/13 10:23:25;;;;;;;19.40;11.68;;;;;;;;;;5126715;27;20039;-63
2024/01/13 10:25:51;;;;;;;22.92;14.13;;;;;;;;;;5129903;27;20140;-65
2024/01/13 10:28:17;;;;;;;24.17;11.80;;;;;;;;;;5125742;27;20084;-63
2024/01/13 10:30:43;;;;;;;21.23;10.93;;;;;;;;;;5120944;27;20046;-63
2024/01/13 10:33:11;;;;;;;17.63;11.85;;;;;;;;;;5129921;27;20043;-63
2024/01/13 10:35:37;;;;;;;18.23;10.68;;;;;;;;;;5119972;27;20039;-63
2024/01/13 10:38:04;;;;;;;19.58;10.27;;;;;;;;;;5129906;27;20150;-63
2024/01/13 10:40:30;;;;;;;16.25;10.48;;;;;;;;;;5112613;27;20354;-64
2024/01/13 10:42:57;;;;;;;14.95;10.35;;;;;;;;;;5119526;27;20356;-64
2024/01/13 10:45:24;;;;;;;15.85;10.15;;;;;;;;;;5122126;27;20054;-63
2024/01/13 10:47:54;;;;;;;20.02;10.93;;;;;;;;;;5120354;27;20503;-64
2024/01/13 10:50:20;;;;;;;14.52;9.20;;;;;;;;;;5122452;27;20598;-64
2024/01/13 10:52:58;;;;;;;18.98;9.77;;;;;;;;;;5101984;27;20056;-63
2024/01/13 10:55:26;;;;;;;17.58;10.55;;;;;;;;;;5117994;27;20556;-63
2024/01/13 10:57:52;;;;;;;14.13;9.35;;;;;;;;;;5124175;27;20613;-63
2024/01/13 11:00:19;;;;;;;15.63;10.48;;;;;;;;;;5125653;27;20063;-63
2024/01/13 11:02:47;;;;;;;15.68;9.75;;;;;;;;;;5122529;27;20039;-63
2024/01/13 11:05:15;;;;;;;12.43;8.43;;;;;;;;;;5118871;27;20039;-63
2024/01/13 11:07:41;;;;;;;15.25;9.32;;;5.40;99.90;;;;;;5122289;27;20476;-65
2024/01/13 11:10:11;;;;;;;14.45;8.10;;;;;;;;;;5123553;27;20306;-63
2024/01/13 11:12:39;;;;;;;15.48;8.90;;;;;;;;;;5101443;27;20478;-63
2024/01/13 11:15:15;;;;;;;15.93;8.60;;;;;;;;;;5098387;27;20055;-63
2024/01/13 11:17:41;;;;;;;15.50;7.95;;;;;;;;;;5114583;27;20067;-63
2024/01/13 11:20:10;;;;;;;11.82;7.95;;;;;;;;;;5128457;27;20572;-63
2024/01/13 11:22:37;;;;;;;12.48;8.60;;;;;;;;;;5123790;27;20341;-63
2024/01/13 11:25:06;;;;;;;12.70;6.95;;;;;;;;;;5129828;27;20493;-63
2024/01/13 11:27:33;;;;;;;11.25;6.68;;;;;;;;;;5124806;27;20110;-63
2024/01/13 11:29:59;;;;;;;10.07;7.13;;;;;;;;;;5120686;27;20060;-63
2024/01/13 11:32:26;;;;;;;10.57;6.88;;;;;;;;;;5120797;27;20354;-63
2024/01/13 11:34:55;;;;;;;10.32;6.68;;;;;;;;;;5125689;27;20127;-64
2024/01/13 11:37:22;;;;;;;11.35;6.72;;;;;;;;;;5126196;27;20430;-64
2024/01/13 11:39:51;;;;;;;9.95;5.90;;;;;;;;;;5124439;27;20271;-63
2024/01/13 11:42:18;;;;;;;10.93;6.13;;;;;;;;;;5115347;27;20401;-64
2024/01/13 11:44:44;;;;;;;10.07;5.82;;;;;;;;;;5107401;27;20035;-63
2024/01/13 11:47:11;;;;;;;10.13;5.53;;;;;;;;;;5119911;27;20055;-63
2024/01/13 11:49:38;;;;;;;9.35;6.93;;;;;;;;;;5107483;27;20606;-63
2024/01/13 11:52:09;;;;;;;7.55;4.88;;;;;;;;;;5128390;27;20079;-64
2024/01/13 11:54:36;;;;;;;9.73;5.13;;;;;;;;;;5124770;27;20503;-63
2024/01/13 11:57:12;;;;;;;12.55;5.20;;;;;;;;;;5128413;27;20038;-63
2024/01/13 11:59:38;;;;;;;6.93;4.63;;;;;;;;;;5123581;27;20050;-63
2024/01/13 12:02:05;;;;;;;8.40;4.70;;;;;;;;;;5105716;27;20050;-63
2024/01/13 12:04:32;;;;;;;8.07;4.95;;;;;;;;;;5122657;27;20051;-63
2024/01/13 12:06:59;;;;;;;7.18;4.25;;;;;;;;;;5120704;27;20047;-64
2024/01/13 12:09:26;;;;;;;8.82;5.13;;;5.10;99.90;;;;;;5124964;27;20039;-63
2024/01/13 12:11:59;;;;;;;6.80;4.05;;;5.30;99.90;;;;;;5120202;27;20793;-64
2024/01/13 12:14:34;;;;;;;7.60;3.90;;;5.30;99.90;;;;;;5124905;27;20048;-63
2024/01/13 12:17:01;;;;;;;7.43;4.07;;;5.30;99.90;;;;;;5116872;27;20062;-63
2024/01/13 12:19:36;;;;;;;7.55;4.50;;;5.30;99.90;;;;;;5102932;27;20043;-63
2024/01/13 12:22:06;;;;;;;8.43;4.43;;;;;;;;;;5123275;27;20099;-63
2024/01/13 12:24:33;;;;;;;6.05;3.60;;;;;;;;;;5121249;27;20452;-63
2024/01/13 12:26:59;;;;;;;6.22;3.60;;;;;;;;;;5123213;27;20035;-63
2024/01/13 12:29:33;;;;;;;5.60;2.80;;;;;;;;;;5124328;27;20105;-62
2024/01/13 12:32:04;;;;;;;6.03;3.20;;;;;;;;;;5105241;27;20047;-63
2024/01/13 12:34:35;;;;;;;4.22;2.85;;;;;;;;;;5121477;27;20047;-64
2024/01/13 12:37:03;;;;;;;5.45;2.97;;;;;;;;;;5125339;27;20079;-63
2024/01/13 12:39:30;;;;;;;4.93;2.78;;;5.40;99.90;;;;;;5125895;27;20046;-63
2024/01/13 12:41:56;;;;;;;3.97;2.67;;;;;;;;;;5125941;27;20043;-63
2024/01/13 12:44:25;;;;;;;8.38;2.97;;;;;;;;;;5124656;27;20047;-63
2024/01/13 12:46:56;;;;;;;5.60;2.80;;;;;;;;;;5127209;27;20458;-63
2024/01/13 12:49:22;;;;;;;3.80;2.25;;;;;;;;;;5104798;27;20049;-63
2024/01/13 12:51:51;;;;;;;6.75;3.13;;;;;;;;;;5119485;27;20039;-63
2024/01/13 12:54:19;;;;;;;3.72;2.28;;;;;;;;;;5123268;27;20043;-64
2024/01/13 12:56:45;;;;;;;5.30;2.50;;;;;;;;;;5125548;27;20031;-63
2024/01/13 12:59:11;;;;;;;4.00;2.35;;;5.50;99.90;;;;;;5114512;27;20138;-63
2024/01/13 13:01:37;;;;;;;4.40;2.25;;;5.60;99.90;;;;;;5114877;27;20118;-63
2024/01/13 13:04:04;;;;;;;5.03;2.55;;;5.70;99.90;;;;;;5121884;27;20044;-63
2024/01/13 13:06:30;;;;;;;5.97;1.85;;;6.10;99.90;;;;;;5107908;27;20035;-63
2024/01/13 13:08:59;;;;;;;3.88;2.20;;;7.00;99.90;;;;;;5126864;27;20031;-63
2024/01/13 13:11:26;;;;;;;3.78;2.45;;;7.80;99.90;;;;;;5120455;27;20074;-64
2024/01/13 13:13:52;;;;;;;4.68;2.35;;;8.40;99.90;;;;;;5123223;27;20062;-63
2024/01/13 13:16:18;;;;;;;2.97;1.70;;;8.80;99.90;;;;;;5118576;27;20399;-64
2024/01/13 13:18:47;;;;;;;4.57;1.80;;;;;;;;;;5127373;27;20027;-63
2024/01/13 13:21:13;;;;;;;3.92;2.28;;;9.10;99.90;;;;;;5129337;27;20061;-63
2024/01/13 13:23:39;;;;;;;3.63;1.88;;;9.90;99.90;;;;;;5123110;27;20497;-63
2024/01/13 13:26:06;;;;;;;7.30;1.95;;;10.20;99.90;;;;;;5127157;27;20039;-64
2024/01/13 13:28:32;;;;;;;3.72;1.75;;;;;;;;;;5124541;27;20045;-64
2024/01/13 13:30:59;;;;;;;3.88;2.22;;;10.40;99.90;;;;;;5120246;27;20031;-64
2024/01/13 13:33:26;;;;;;;4.43;1.88;;;10.50;99.90;;;;;;5127280;27;20062;-65
2024/01/13 13:35:52;;;;;;;3.45;1.60;;;;;;;;;;5124607;27;20434;-64
2024/01/13 13:38:18;;;;;;;4.93;2.03;;;10.60;99.90;;;;;;5088905;28;20459;-64
2024/01/13 13:40:45;;;;;;;3.80;2.45;;;10.70;99.90;;;;;;5124274;27;20133;-64
2024/01/13 13:43:11;;;;;;;6.78;2.50;;;10.60;99.90;;;;;;5125205;27;20039;-63
2024/01/13 13:45:36;;;;;;;4.97;2.05;;;10.60;99.90;;;;;;5110804;27;20035;-64
2024/01/13 13:48:02;;;;;;;4.25;2.13;;;10.50;99.90;;;;;;5128806;27;20487;-63
2024/01/13 13:50:32;;;;;;;5.57;2.05;;;10.40;99.90;;;;;;5127903;27;20110;-63
2024/01/13 13:52:58;;;;;;;3.78;1.98;;;10.30;99.90;;;;;;5128743;27;20493;-64
2024/01/13 13:55:24;;;;;;;4.28;2.33;;;10.30;99.90;;;;;;5122536;27;20042;-65
2024/01/13 13:57:51;;;;;;;9.48;3.13;;;10.30;99.90;;;;;;5119229;27;20035;-63
2024/01/13 14:00:17;;;;;;;10.75;3.50;;;10.20;99.90;;;;;;5123841;27;20079;-63
2024/01/13 14:02:43;;;;;;;7.97;3.80;;;10.10;99.90;;;;;;5125753;27;20039;-64
2024/01/13 14:05:09;;;;;;;8.27;3.47;;;9.90;99.90;;;;;;5125914;27;20484;-63
2024/01/13 14:07:35;;;;;;;7.28;3.60;;;9.80;99.90;;;;;;5124458;27;20042;-63
2024/01/13 14:10:01;;;;;;;7.15;3.55;;;9.70;99.90;;;;;;5123813;28;20039;-64
2024/01/13 14:12:27;;;;;;;6.88;3.63;;;;;;;;;;5124376;28;20647;-63
2024/01/13 14:14:54;;;;;;;5.50;2.97;;;9.60;99.90;;;;;;5126083;28;20051;-64
2024/01/13 14:17:20;;;;;;;7.10;2.95;;;9.30;99.90;;;;;;5126255;28;20058;-63
2024/01/13 14:19:46;;;;;;;7.95;3.97;;;;;;;;;;5125477;28;20064;-64